sensor_id;sensor_type;location;lat;lon;timestamp;pressure;altitude;pressure_sealevel;temperature;humidity
57801;BME280;43627;42.728;23.256;2023-01-15T00:01:51;95418.59;;;2.83;100.00
57801;BME280;43627;42.728;23.256;2023-01-15T00:04:18;95413.72;;;2.75;100.00
57801;BME280;43627;42.728;23.256;2023-01-15T00:06:45;95404.50;;;2.72;100.00
57801;BME280;43627;42.728;23.256;2023-01-15T00:09:14;95412.16;;;2.77;100.00
57801;BME280;43627;42.728;23.256;2023-01-15T00:11:41;95406.09;;;2.66;100.00
57801;BME280;43627;42.728;23.256;2023-01-15T00:14:08;95391.53;;;2.60;100.00
57801;BME280;43627;42.728;23.256;2023-01-15T00:16:35;95425.50;;;2.88;100.00
57801;BME280;43627;42.728;23.256;2023-01-15T00:19:01;95424.00;;;2.83;100.00
57801;BME280;43627;42.728;23.256;2023-01-15T00:21:30;95422.97;;;2.70;100.00
57801;BME280;43627;42.728;23.256;2023-01-15T00:23:57;95400.78;;;2.59;100.00
57801;BME280;43627;42.728;23.256;2023-01-15T00:26:42;95423.41;;;2.65;100.00
57801;BME280;43627;42.728;23.256;2023-01-15T00:29:28;95415.31;;;2.69;100.00
57801;BME280;43627;42.728;23.256;2023-01-15T00:32:00;95422.16;;;2.77;100.00
57801;BME280;43627;42.728;23.256;2023-01-15T00:34:27;95410.38;;;2.60;100.00
57801;BME280;43627;42.728;23.256;2023-01-15T00:36:55;95393.66;;;2.38;100.00
57801;BME280;43627;42.728;23.256;2023-01-15T00:39:22;95420.34;;;2.67;100.00
57801;BME280;43627;42.728;23.256;2023-01-15T00:41:49;95411.91;;;2.61;100.00
57801;BME280;43627;42.728;23.256;2023-01-15T00:44:16;95419.19;;;2.64;100.00
57801;BME280;43627;42.728;23.256;2023-01-15T00:46:43;95410.69;;;2.69;100.00
57801;BME280;43627;42.728;23.256;2023-01-15T00:49:10;95401.97;;;2.54;100.00
57801;BME280;43627;42.728;23.256;2023-01-15T00:51:36;95408.84;;;2.59;100.00
57801;BME280;43627;42.728;23.256;2023-01-15T00:54:03;95393.22;;;2.47;100.00
57801;BME280;43627;42.728;23.256;2023-01-15T00:56:30;95418.75;;;2.69;100.00
57801;BME280;43627;42.728;23.256;2023-01-15T00:59:00;95387.72;;;2.57;100.00
57801;BME280;43627;42.728;23.256;2023-01-15T01:01:27;95405.72;;;2.64;100.00
57801;BME280;43627;42.728;23.256;2023-01-15T01:03:54;95406.88;;;2.67;100.00
57801;BME280;43627;42.728;23.256;2023-01-15T01:06:21;95400.72;;;2.66;100.00
57801;BME280;43627;42.728;23.256;2023-01-15T01:08:48;95407.69;;;2.60;100.00
57801;BME280;43627;42.728;23.256;2023-01-15T01:11:17;95402.25;;;2.64;100.00
57801;BME280;43627;42.728;23.256;2023-01-15T01:13:46;95390.25;;;2.72;100.00
57801;BME280;43627;42.728;23.256;2023-01-15T01:16:25;95392.97;;;2.72;100.00
57801;BME280;43627;42.728;23.256;2023-01-15T01:18:53;95397.16;;;2.76;100.00
57801;BME280;43627;42.728;23.256;2023-01-15T01:21:20;95387.16;;;2.77;100.00
57801;BME280;43627;42.728;23.256;2023-01-15T01:23:47;95363.34;;;2.72;100.00
57801;BME280;43627;42.728;23.256;2023-01-15T01:26:14;95404.59;;;2.99;100.00
57801;BME280;43627;42.728;23.256;2023-01-15T01:28:41;95392.25;;;3.02;100.00
57801;BME280;43627;42.728;23.256;2023-01-15T01:31:08;95374.97;;;2.99;100.00
57801;BME280;43627;42.728;23.256;2023-01-15T01:33:35;95391.91;;;3.00;100.00
57801;BME280;43627;42.728;23.256;2023-01-15T01:36:03;95377.72;;;2.96;100.00
57801;BME280;43627;42.728;23.256;2023-01-15T01:38:30;95410.16;;;3.19;100.00
57801;BME280;43627;42.728;23.256;2023-01-15T01:40:56;95400.38;;;3.32;100.00
57801;BME280;43627;42.728;23.256;2023-01-15T01:43:25;95410.00;;;3.33;100.00
57801;BME280;43627;42.728;23.256;2023-01-15T01:45:52;95390.09;;;3.24;100.00
57801;BME280;43627;42.728;23.256;2023-01-15T01:48:27;95414.09;;;3.45;100.00
57801;BME280;43627;42.728;23.256;2023-01-15T01:50:57;95397.56;;;3.43;100.00
57801;BME280;43627;42.728;23.256;2023-01-15T01:53:28;95392.31;;;3.32;100.00
57801;BME280;43627;42.728;23.256;2023-01-15T01:55:57;95383.06;;;3.30;100.00
57801;BME280;43627;42.728;23.256;2023-01-15T01:58:27;95399.16;;;3.37;100.00
57801;BME280;43627;42.728;23.256;2023-01-15T02:00:56;95384.72;;;3.20;100.00
57801;BME280;43627;42.728;23.256;2023-01-15T02:03:31;95392.88;;;3.47;100.00
57801;BME280;43627;42.728;23.256;2023-01-15T02:06:02;95405.59;;;3.47;100.00
57801;BME280;43627;42.728;23.256;2023-01-15T02:08:32;95406.75;;;3.46;100.00
57801;BME280;43627;42.728;23.256;2023-01-15T02:11:00;95394.63;;;3.30;100.00
57801;BME280;43627;42.728;23.256;2023-01-15T02:13:37;95399.28;;;3.26;100.00
57801;BME280;43627;42.728;23.256;2023-01-15T02:16:35;95395.09;;;3.22;100.00
57801;BME280;43627;42.728;23.256;2023-01-15T02:22:06;95404.31;;;3.24;100.00
57801;BME280;43627;42.728;23.256;2023-01-15T02:27:14;95379.06;;;3.11;100.00
57801;BME280;43627;42.728;23.256;2023-01-15T02:32:39;95384.16;;;3.05;100.00
57801;BME280;43627;42.728;23.256;2023-01-15T02:35:17;95380.59;;;3.12;100.00
57801;BME280;43627;42.728;23.256;2023-01-15T02:37:49;95382.13;;;3.13;100.00
57801;BME280;43627;42.728;23.256;2023-01-15T02:40:18;95363.03;;;3.00;100.00
57801;BME280;43627;42.728;23.256;2023-01-15T02:42:52;95358.88;;;2.92;100.00
57801;BME280;43627;42.728;23.256;2023-01-15T02:45:23;95381.94;;;2.97;100.00
57801;BME280;43627;42.728;23.256;2023-01-15T02:47:54;95380.06;;;2.90;100.00
57801;BME280;43627;42.728;23.256;2023-01-15T02:50:28;95367.81;;;2.85;100.00
57801;BME280;43627;42.728;23.256;2023-01-15T02:52:58;95383.25;;;2.81;100.00
57801;BME280;43627;42.728;23.256;2023-01-15T02:55:33;95380.19;;;2.79;100.00
57801;BME280;43627;42.728;23.256;2023-01-15T02:58:03;95370.59;;;2.78;100.00
57801;BME280;43627;42.728;23.256;2023-01-15T03:00:36;95389.66;;;2.95;100.00
57801;BME280;43627;42.728;23.256;2023-01-15T03:03:15;95373.56;;;2.88;100.00
57801;BME280;43627;42.728;23.256;2023-01-15T03:05:55;95289.97;;;2.26;100.00
57801;BME280;43627;42.728;23.256;2023-01-15T03:08:25;95396.31;;;2.83;100.00
57801;BME280;43627;42.728;23.256;2023-01-15T03:11:11;95390.53;;;2.84;100.00
57801;BME280;43627;42.728;23.256;2023-01-15T03:13:52;95386.00;;;2.74;100.00
57801;BME280;43627;42.728;23.256;2023-01-15T03:16:34;95383.75;;;2.69;100.00
57801;BME280;43627;42.728;23.256;2023-01-15T03:22:16;95380.66;;;2.71;100.00
57801;BME280;43627;42.728;23.256;2023-01-15T03:27:14;95346.59;;;2.57;100.00
57801;BME280;43627;42.728;23.256;2023-01-15T03:29:44;95367.25;;;2.67;100.00
57801;BME280;43627;42.728;23.256;2023-01-15T03:32:12;95370.00;;;2.60;100.00
57801;BME280;43627;42.728;23.256;2023-01-15T03:34:49;95368.47;;;2.59;100.00
57801;BME280;43627;42.728;23.256;2023-01-15T03:37:18;95330.66;;;2.32;100.00
57801;BME280;43627;42.728;23.256;2023-01-15T03:39:46;95377.63;;;2.65;100.00
57801;BME280;43627;42.728;23.256;2023-01-15T03:45:02;95376.97;;;2.57;100.00
57801;BME280;43627;42.728;23.256;2023-01-15T03:55:30;95367.50;;;2.80;100.00
57801;BME280;43627;42.728;23.256;2023-01-15T03:58:08;95351.44;;;2.69;100.00
57801;BME280;43627;42.728;23.256;2023-01-15T04:00:50;95357.84;;;2.82;100.00
57801;BME280;43627;42.728;23.256;2023-01-15T04:03:19;95374.69;;;2.90;100.00
57801;BME280;43627;42.728;23.256;2023-01-15T04:05:49;95363.91;;;2.90;100.00
57801;BME280;43627;42.728;23.256;2023-01-15T04:08:17;95378.56;;;2.89;100.00
57801;BME280;43627;42.728;23.256;2023-01-15T04:10:56;95367.06;;;2.85;100.00
57801;BME280;43627;42.728;23.256;2023-01-15T04:13:23;95376.09;;;3.02;100.00
57801;BME280;43627;42.728;23.256;2023-01-15T04:15:50;95378.28;;;3.14;100.00
57801;BME280;43627;42.728;23.256;2023-01-15T04:18:18;95345.34;;;2.99;100.00
57801;BME280;43627;42.728;23.256;2023-01-15T04:20:45;95371.59;;;3.26;100.00
57801;BME280;43627;42.728;23.256;2023-01-15T04:23:12;95366.47;;;3.04;100.00
57801;BME280;43627;42.728;23.256;2023-01-15T04:25:39;95380.50;;;3.19;100.00
57801;BME280;43627;42.728;23.256;2023-01-15T04:28:07;95385.91;;;3.19;100.00
57801;BME280;43627;42.728;23.256;2023-01-15T04:30:35;95383.94;;;3.23;100.00
57801;BME280;43627;42.728;23.256;2023-01-15T04:33:02;95372.78;;;3.21;100.00
57801;BME280;43627;42.728;23.256;2023-01-15T04:35:29;95390.84;;;3.24;100.00
57801;BME280;43627;42.728;23.256;2023-01-15T04:37:57;95384.59;;;3.31;100.00
57801;BME280;43627;42.728;23.256;2023-01-15T04:40:24;95369.66;;;3.26;100.00
57801;BME280;43627;42.728;23.256;2023-01-15T04:43:13;95342.59;;;3.03;100.00
57801;BME280;43627;42.728;23.256;2023-01-15T04:45:59;95366.22;;;3.22;100.00
57801;BME280;43627;42.728;23.256;2023-01-15T04:48:25;95386.94;;;3.29;100.00
57801;BME280;43627;42.728;23.256;2023-01-15T04:50:54;95387.25;;;3.34;100.00
57801;BME280;43627;42.728;23.256;2023-01-15T04:53:20;95384.56;;;3.34;100.00
57801;BME280;43627;42.728;23.256;2023-01-15T04:55:47;95352.94;;;3.08;100.00
57801;BME280;43627;42.728;23.256;2023-01-15T04:58:14;95366.41;;;3.08;100.00
57801;BME280;43627;42.728;23.256;2023-01-15T05:00:40;95340.00;;;2.96;100.00
57801;BME280;43627;42.728;23.256;2023-01-15T05:03:07;95369.78;;;3.15;100.00
57801;BME280;43627;42.728;23.256;2023-01-15T05:05:34;95368.75;;;3.06;100.00
57801;BME280;43627;42.728;23.256;2023-01-15T05:08:00;95395.50;;;3.20;100.00
57801;BME280;43627;42.728;23.256;2023-01-15T05:10:27;95391.97;;;3.27;100.00
57801;BME280;43627;42.728;23.256;2023-01-15T05:12:54;95394.19;;;3.35;100.00
57801;BME280;43627;42.728;23.256;2023-01-15T05:15:20;95382.66;;;3.31;100.00
57801;BME280;43627;42.728;23.256;2023-01-15T05:17:48;95393.00;;;3.36;100.00
57801;BME280;43627;42.728;23.256;2023-01-15T05:20:15;95376.66;;;3.20;100.00
57801;BME280;43627;42.728;23.256;2023-01-15T05:22:42;95395.34;;;3.34;100.00
57801;BME280;43627;42.728;23.256;2023-01-15T05:25:08;95399.63;;;3.32;100.00
57801;BME280;43627;42.728;23.256;2023-01-15T05:27:35;95389.69;;;3.25;100.00
57801;BME280;43627;42.728;23.256;2023-01-15T05:30:02;95371.75;;;3.11;100.00
57801;BME280;43627;42.728;23.256;2023-01-15T05:32:29;95396.25;;;3.24;100.00
57801;BME280;43627;42.728;23.256;2023-01-15T05:34:56;95393.97;;;3.23;100.00
57801;BME280;43627;42.728;23.256;2023-01-15T05:37:22;95371.59;;;2.92;100.00
57801;BME280;43627;42.728;23.256;2023-01-15T05:39:49;95368.91;;;2.92;100.00
57801;BME280;43627;42.728;23.256;2023-01-15T05:42:16;95346.78;;;2.73;100.00
57801;BME280;43627;42.728;23.256;2023-01-15T05:44:42;95368.59;;;2.82;100.00
57801;BME280;43627;42.728;23.256;2023-01-15T05:47:09;95404.94;;;3.05;100.00
57801;BME280;43627;42.728;23.256;2023-01-15T05:49:36;95336.19;;;2.55;100.00
57801;BME280;43627;42.728;23.256;2023-01-15T05:52:03;95405.38;;;3.00;100.00
57801;BME280;43627;42.728;23.256;2023-01-15T05:54:32;95343.50;;;2.55;100.00
57801;BME280;43627;42.728;23.256;2023-01-15T05:56:59;95393.59;;;2.86;100.00
57801;BME280;43627;42.728;23.256;2023-01-15T05:59:28;95401.03;;;2.75;100.00
57801;BME280;43627;42.728;23.256;2023-01-15T06:01:55;95398.03;;;2.63;100.00
57801;BME280;43627;42.728;23.256;2023-01-15T06:04:22;95407.94;;;2.76;100.00
57801;BME280;43627;42.728;23.256;2023-01-15T06:06:52;95423.34;;;2.72;100.00
57801;BME280;43627;42.728;23.256;2023-01-15T06:09:19;95408.81;;;2.63;100.00
57801;BME280;43627;42.728;23.256;2023-01-15T06:11:45;95378.19;;;2.49;100.00
57801;BME280;43627;42.728;23.256;2023-01-15T06:14:13;95387.69;;;2.61;100.00
57801;BME280;43627;42.728;23.256;2023-01-15T06:16:40;95362.09;;;2.42;100.00
57801;BME280;43627;42.728;23.256;2023-01-15T06:19:08;95406.59;;;2.92;100.00
57801;BME280;43627;42.728;23.256;2023-01-15T06:21:35;95404.19;;;3.01;100.00
57801;BME280;43627;42.728;23.256;2023-01-15T06:24:02;95395.34;;;3.00;100.00
57801;BME280;43627;42.728;23.256;2023-01-15T06:26:29;95400.59;;;3.14;100.00
57801;BME280;43627;42.728;23.256;2023-01-15T06:28:56;95394.06;;;3.12;100.00
57801;BME280;43627;42.728;23.256;2023-01-15T06:31:23;95378.41;;;3.03;100.00
57801;BME280;43627;42.728;23.256;2023-01-15T06:33:52;95399.22;;;3.33;100.00
57801;BME280;43627;42.728;23.256;2023-01-15T06:36:21;95416.09;;;3.37;100.00
57801;BME280;43627;42.728;23.256;2023-01-15T06:38:48;95404.78;;;3.50;100.00
57801;BME280;43627;42.728;23.256;2023-01-15T06:41:20;95360.06;;;3.22;100.00
57801;BME280;43627;42.728;23.256;2023-01-15T06:44:15;95404.28;;;3.58;100.00
57801;BME280;43627;42.728;23.256;2023-01-15T06:47:19;95401.50;;;3.65;100.00
57801;BME280;43627;42.728;23.256;2023-01-15T06:49:54;95402.56;;;3.71;100.00
57801;BME280;43627;42.728;23.256;2023-01-15T06:52:23;95403.75;;;3.70;100.00
57801;BME280;43627;42.728;23.256;2023-01-15T06:54:50;95381.53;;;3.59;100.00
57801;BME280;43627;42.728;23.256;2023-01-15T06:57:18;95396.94;;;3.59;100.00
57801;BME280;43627;42.728;23.256;2023-01-15T06:59:45;95386.47;;;3.64;100.00
57801;BME280;43627;42.728;23.256;2023-01-15T07:02:12;95394.16;;;3.66;100.00
57801;BME280;43627;42.728;23.256;2023-01-15T07:04:38;95396.03;;;3.69;100.00
57801;BME280;43627;42.728;23.256;2023-01-15T07:07:05;95394.41;;;3.75;100.00
57801;BME280;43627;42.728;23.256;2023-01-15T07:09:32;95326.75;;;3.39;100.00
57801;BME280;43627;42.728;23.256;2023-01-15T07:11:58;95411.13;;;3.93;100.00
57801;BME280;43627;42.728;23.256;2023-01-15T07:14:26;95412.66;;;3.94;100.00
57801;BME280;43627;42.728;23.256;2023-01-15T07:16:56;95408.50;;;3.86;100.00
57801;BME280;43627;42.728;23.256;2023-01-15T07:19:24;95358.03;;;3.60;100.00
57801;BME280;43627;42.728;23.256;2023-01-15T07:21:51;95417.78;;;4.12;100.00
57801;BME280;43627;42.728;23.256;2023-01-15T07:24:18;95405.06;;;4.13;100.00
57801;BME280;43627;42.728;23.256;2023-01-15T07:26:45;95401.75;;;4.01;100.00
57801;BME280;43627;42.728;23.256;2023-01-15T07:29:12;95423.50;;;4.18;100.00
57801;BME280;43627;42.728;23.256;2023-01-15T07:31:38;95418.84;;;4.18;100.00
57801;BME280;43627;42.728;23.256;2023-01-15T07:34:06;95399.13;;;3.98;100.00
57801;BME280;43627;42.728;23.256;2023-01-15T07:36:33;95418.00;;;3.98;100.00
57801;BME280;43627;42.728;23.256;2023-01-15T07:38:59;95422.31;;;4.19;100.00
57801;BME280;43627;42.728;23.256;2023-01-15T07:41:27;95425.69;;;4.26;100.00
57801;BME280;43627;42.728;23.256;2023-01-15T07:44:13;95423.16;;;4.39;100.00
57801;BME280;43627;42.728;23.256;2023-01-15T07:46:58;95431.50;;;4.48;100.00
57801;BME280;43627;42.728;23.256;2023-01-15T07:49:44;95420.81;;;4.65;100.00
57801;BME280;43627;42.728;23.256;2023-01-15T07:52:18;95415.84;;;4.83;100.00
57801;BME280;43627;42.728;23.256;2023-01-15T07:54:46;95406.09;;;4.89;100.00
57801;BME280;43627;42.728;23.256;2023-01-15T07:57:15;95370.06;;;4.76;100.00
57801;BME280;43627;42.728;23.256;2023-01-15T07:59:43;95417.84;;;5.22;100.00
57801;BME280;43627;42.728;23.256;2023-01-15T08:02:10;95409.44;;;5.36;100.00
57801;BME280;43627;42.728;23.256;2023-01-15T08:04:39;95398.22;;;5.38;100.00
57801;BME280;43627;42.728;23.256;2023-01-15T08:07:06;95392.59;;;5.29;100.00
57801;BME280;43627;42.728;23.256;2023-01-15T08:09:34;95404.78;;;5.57;99.78
57801;BME280;43627;42.728;23.256;2023-01-15T08:12:02;95403.97;;;5.60;97.09
57801;BME280;43627;42.728;23.256;2023-01-15T08:14:47;95393.88;;;5.80;97.61
57801;BME280;43627;42.728;23.256;2023-01-15T08:17:35;95347.41;;;5.29;95.70
57801;BME280;43627;42.728;23.256;2023-01-15T08:20:03;95423.44;;;5.71;94.72
57801;BME280;43627;42.728;23.256;2023-01-15T08:22:31;95353.00;;;5.38;93.75
57801;BME280;43627;42.728;23.256;2023-01-15T08:24:57;95434.88;;;5.98;95.48
57801;BME280;43627;42.728;23.256;2023-01-15T08:27:24;95424.41;;;6.33;90.03
57801;BME280;43627;42.728;23.256;2023-01-15T08:29:52;95396.81;;;6.22;87.35
57801;BME280;43627;42.728;23.256;2023-01-15T08:32:18;95393.91;;;5.96;88.08
57801;BME280;43627;42.728;23.256;2023-01-15T08:34:45;95430.41;;;6.57;85.67
57801;BME280;43627;42.728;23.256;2023-01-15T08:37:11;95430.91;;;6.68;84.50
57801;BME280;43627;42.728;23.256;2023-01-15T08:39:38;95417.34;;;6.84;86.10
57801;BME280;43627;42.728;23.256;2023-01-15T08:42:05;95409.38;;;6.94;83.29
57801;BME280;43627;42.728;23.256;2023-01-15T08:44:31;95410.91;;;6.78;81.31
57801;BME280;43627;42.728;23.256;2023-01-15T08:46:58;95422.25;;;6.90;83.45
57801;BME280;43627;42.728;23.256;2023-01-15T08:49:25;95418.78;;;6.89;86.66
57801;BME280;43627;42.728;23.256;2023-01-15T08:51:51;95424.78;;;6.97;81.60
57801;BME280;43627;42.728;23.256;2023-01-15T08:54:19;95412.97;;;6.74;78.18
57801;BME280;43627;42.728;23.256;2023-01-15T08:56:47;95400.53;;;6.44;79.44
57801;BME280;43627;42.728;23.256;2023-01-15T08:59:15;95417.19;;;6.43;77.49
57801;BME280;43627;42.728;23.256;2023-01-15T09:01:42;95424.50;;;6.46;77.14
57801;BME280;43627;42.728;23.256;2023-01-15T09:04:18;95422.34;;;6.70;77.54
57801;BME280;43627;42.728;23.256;2023-01-15T09:06:46;95431.41;;;6.79;77.73
57801;BME280;43627;42.728;23.256;2023-01-15T09:09:14;95424.06;;;6.47;80.00
57801;BME280;43627;42.728;23.256;2023-01-15T09:11:41;95414.25;;;6.37;79.66
57801;BME280;43627;42.728;23.256;2023-01-15T09:14:12;95399.78;;;6.27;79.92
57801;BME280;43627;42.728;23.256;2023-01-15T09:16:59;95400.44;;;6.15;81.78
57801;BME280;43627;42.728;23.256;2023-01-15T09:19:26;95409.00;;;6.46;82.69
57801;BME280;43627;42.728;23.256;2023-01-15T09:21:52;95395.38;;;6.50;81.78
57801;BME280;43627;42.728;23.256;2023-01-15T09:24:19;95399.53;;;6.54;83.20
57801;BME280;43627;42.728;23.256;2023-01-15T09:26:46;95405.19;;;6.27;84.93
57801;BME280;43627;42.728;23.256;2023-01-15T09:29:13;95398.59;;;6.45;82.71
57801;BME280;43627;42.728;23.256;2023-01-15T09:31:40;95381.66;;;6.41;85.27
57801;BME280;43627;42.728;23.256;2023-01-15T09:34:07;95383.72;;;6.37;84.04
57801;BME280;43627;42.728;23.256;2023-01-15T09:36:34;95380.31;;;6.33;82.80
57801;BME280;43627;42.728;23.256;2023-01-15T09:39:03;95360.75;;;6.25;85.44
57801;BME280;43627;42.728;23.256;2023-01-15T09:55:27;95352.91;;;6.76;80.20
57801;BME280;43627;42.728;23.256;2023-01-15T09:57:57;95296.94;;;6.40;79.70
57801;BME280;43627;42.728;23.256;2023-01-15T10:00:27;95351.72;;;7.06;78.79
57801;BME280;43627;42.728;23.256;2023-01-15T10:03:06;95336.16;;;7.23;77.57
57801;BME280;43627;42.728;23.256;2023-01-15T10:05:43;95323.78;;;7.22;75.09
57801;BME280;43627;42.728;23.256;2023-01-15T10:08:24;95329.03;;;7.00;74.91
57801;BME280;43627;42.728;23.256;2023-01-15T10:10:55;95308.25;;;6.51;80.06
57801;BME280;43627;42.728;23.256;2023-01-15T10:13:29;95319.34;;;6.57;84.34
57801;BME280;43627;42.728;23.256;2023-01-15T10:15:56;95315.94;;;6.53;82.89
57801;BME280;43627;42.728;23.256;2023-01-15T10:18:25;95313.88;;;6.28;85.82
57801;BME280;43627;42.728;23.256;2023-01-15T10:43:05;95268.31;;;6.10;87.85
57801;BME280;43627;42.728;23.256;2023-01-15T10:45:40;95261.69;;;6.11;88.23
57801;BME280;43627;42.728;23.256;2023-01-15T10:51:02;95261.19;;;5.84;88.82
57801;BME280;43627;42.728;23.256;2023-01-15T10:53:38;95253.59;;;5.79;90.27
57801;BME280;43627;42.728;23.256;2023-01-15T10:59:22;95246.03;;;5.54;92.45
57801;BME280;43627;42.728;23.256;2023-01-15T11:01:51;95238.88;;;5.80;93.37
57801;BME280;43627;42.728;23.256;2023-01-15T11:04:20;95227.38;;;6.08;89.20
57801;BME280;43627;42.728;23.256;2023-01-15T11:06:46;95219.75;;;6.03;86.62
57801;BME280;43627;42.728;23.256;2023-01-15T11:09:41;95232.50;;;6.19;86.78
57801;BME280;43627;42.728;23.256;2023-01-15T11:14:58;95184.06;;;6.08;85.38
57801;BME280;43627;42.728;23.256;2023-01-15T11:17:44;95217.66;;;6.52;81.29
57801;BME280;43627;42.728;23.256;2023-01-15T11:20:34;95222.53;;;6.45;80.40
57801;BME280;43627;42.728;23.256;2023-01-15T11:23:11;95207.50;;;6.56;80.65
57801;BME280;43627;42.728;23.256;2023-01-15T11:25:51;95213.00;;;6.53;81.63
57801;BME280;43627;42.728;23.256;2023-01-15T11:28:35;95210.72;;;6.51;82.23
57801;BME280;43627;42.728;23.256;2023-01-15T11:31:06;95205.88;;;6.59;84.24
57801;BME280;43627;42.728;23.256;2023-01-15T11:33:34;95203.00;;;6.37;88.68
57801;BME280;43627;42.728;23.256;2023-01-15T11:36:04;95182.75;;;6.42;91.19
57801;BME280;43627;42.728;23.256;2023-01-15T11:38:47;95197.13;;;6.80;88.80
57801;BME280;43627;42.728;23.256;2023-01-15T11:41:19;95187.09;;;6.94;81.36
57801;BME280;43627;42.728;23.256;2023-01-15T11:43:53;95189.56;;;6.88;79.78
57801;BME280;43627;42.728;23.256;2023-01-15T11:46:39;95186.44;;;7.02;80.40
57801;BME280;43627;42.728;23.256;2023-01-15T11:49:24;95168.19;;;6.90;76.69
57801;BME280;43627;42.728;23.256;2023-01-15T11:52:15;95176.09;;;6.72;78.16
57801;BME280;43627;42.728;23.256;2023-01-15T11:54:49;95174.69;;;6.67;81.58
57801;BME280;43627;42.728;23.256;2023-01-15T11:57:32;95149.09;;;6.68;79.43
57801;BME280;43627;42.728;23.256;2023-01-15T12:00:02;95150.56;;;6.44;79.79
57801;BME280;43627;42.728;23.256;2023-01-15T12:02:35;95153.63;;;6.46;81.67
57801;BME280;43627;42.728;23.256;2023-01-15T12:05:27;95154.03;;;6.44;81.06
57801;BME280;43627;42.728;23.256;2023-01-15T12:07:57;95153.81;;;6.39;82.60
57801;BME280;43627;42.728;23.256;2023-01-15T12:10:48;95154.94;;;6.54;82.17
57801;BME280;43627;42.728;23.256;2023-01-15T12:16:24;95151.88;;;6.39;85.04
57801;BME280;43627;42.728;23.256;2023-01-15T12:18:58;95151.06;;;6.55;85.06
57801;BME280;43627;42.728;23.256;2023-01-15T12:21:44;95153.22;;;6.60;83.48
57801;BME280;43627;42.728;23.256;2023-01-15T12:30:02;95129.28;;;6.71;86.14
57801;BME280;43627;42.728;23.256;2023-01-15T12:32:36;95136.78;;;6.93;85.14
57801;BME280;43627;42.728;23.256;2023-01-15T12:35:14;95128.66;;;6.93;85.57
57801;BME280;43627;42.728;23.256;2023-01-15T12:37:46;95132.09;;;7.19;85.01
57801;BME280;43627;42.728;23.256;2023-01-15T12:42:53;95127.56;;;7.03;82.99
57801;BME280;43627;42.728;23.256;2023-01-15T12:45:50;95127.88;;;7.05;84.87
57801;BME280;43627;42.728;23.256;2023-01-15T12:48:30;95126.56;;;6.97;85.17
57801;BME280;43627;42.728;23.256;2023-01-15T12:51:02;95122.38;;;6.83;85.92
57801;BME280;43627;42.728;23.256;2023-01-15T12:59:10;95115.06;;;6.67;89.22
57801;BME280;43627;42.728;23.256;2023-01-15T13:07:22;95106.72;;;6.49;91.17
57801;BME280;43627;42.728;23.256;2023-01-15T13:10:14;95090.78;;;6.51;91.49
57801;BME280;43627;42.728;23.256;2023-01-15T13:12:41;95092.22;;;6.68;89.97
57801;BME280;43627;42.728;23.256;2023-01-15T13:15:13;95100.00;;;6.79;90.15
57801;BME280;43627;42.728;23.256;2023-01-15T13:20:46;95083.00;;;6.66;89.70
57801;BME280;43627;42.728;23.256;2023-01-15T13:23:43;95091.69;;;6.73;90.62
57801;BME280;43627;42.728;23.256;2023-01-15T13:26:43;95084.72;;;6.72;90.24
57801;BME280;43627;42.728;23.256;2023-01-15T13:32:25;95071.06;;;6.76;88.09
57801;BME280;43627;42.728;23.256;2023-01-15T13:37:52;95071.41;;;6.65;86.84
57801;BME280;43627;42.728;23.256;2023-01-15T13:40:26;95057.75;;;6.69;85.80
57801;BME280;43627;42.728;23.256;2023-01-15T13:42:55;95077.03;;;6.96;85.42
57801;BME280;43627;42.728;23.256;2023-01-15T13:45:35;95075.63;;;7.04;84.23
57801;BME280;43627;42.728;23.256;2023-01-15T13:51:00;95077.38;;;6.73;86.60
57801;BME280;43627;42.728;23.256;2023-01-15T13:53:33;95076.50;;;6.76;86.43
57801;BME280;43627;42.728;23.256;2023-01-15T13:56:05;95079.22;;;6.76;85.85
57801;BME280;43627;42.728;23.256;2023-01-15T13:58:37;95073.69;;;6.92;85.46
57801;BME280;43627;42.728;23.256;2023-01-15T14:03:54;95056.31;;;6.90;85.34
57801;BME280;43627;42.728;23.256;2023-01-15T14:06:35;95071.59;;;6.96;85.68
57801;BME280;43627;42.728;23.256;2023-01-15T14:09:03;95063.03;;;6.72;88.29
57801;BME280;43627;42.728;23.256;2023-01-15T14:11:37;95063.38;;;6.62;89.73
57801;BME280;43627;42.728;23.256;2023-01-15T14:25:43;95048.81;;;6.17;94.45
57801;BME280;43627;42.728;23.256;2023-01-15T14:34:21;95067.34;;;6.19;94.07
57801;BME280;43627;42.728;23.256;2023-01-15T14:37:02;95052.25;;;6.05;94.91
57801;BME280;43627;42.728;23.256;2023-01-15T14:39:38;95052.03;;;5.99;95.81
57801;BME280;43627;42.728;23.256;2023-01-15T14:45:20;95052.59;;;5.78;100.00
57801;BME280;43627;42.728;23.256;2023-01-15T14:47:53;95068.47;;;5.76;99.75
57801;BME280;43627;42.728;23.256;2023-01-15T14:52:51;95056.47;;;5.77;100.00
57801;BME280;43627;42.728;23.256;2023-01-15T14:55:22;95060.97;;;5.67;99.92
57801;BME280;43627;42.728;23.256;2023-01-15T14:58:00;95052.41;;;5.56;100.00
57801;BME280;43627;42.728;23.256;2023-01-15T15:00:37;95050.72;;;5.46;100.00
57801;BME280;43627;42.728;23.256;2023-01-15T15:03:20;95065.00;;;5.47;100.00
57801;BME280;43627;42.728;23.256;2023-01-15T15:05:47;95062.09;;;5.41;100.00
57801;BME280;43627;42.728;23.256;2023-01-15T15:08:17;95048.25;;;5.23;100.00
57801;BME280;43627;42.728;23.256;2023-01-15T15:10:50;95068.59;;;5.27;100.00
57801;BME280;43627;42.728;23.256;2023-01-15T15:13:33;95061.78;;;5.23;100.00
57801;BME280;43627;42.728;23.256;2023-01-15T15:16:20;95059.66;;;5.14;100.00
57801;BME280;43627;42.728;23.256;2023-01-15T15:19:03;95056.63;;;5.12;100.00
57801;BME280;43627;42.728;23.256;2023-01-15T15:21:32;95075.88;;;5.14;100.00
57801;BME280;43627;42.728;23.256;2023-01-15T15:26:39;95069.13;;;4.90;100.00
57801;BME280;43627;42.728;23.256;2023-01-15T15:31:38;95046.81;;;4.69;100.00